createdAt,value
2019-02-28T00:00:42.831Z,0
2019-02-28T00:01:38.943Z,0
2019-02-28T00:02:38.933Z,0
2019-02-28T00:03:38.913Z,0
2019-02-28T00:04:39.982Z,0
2019-02-28T00:05:40.519Z,0
2019-02-28T00:06:38.878Z,0
2019-02-28T00:07:38.864Z,0
2019-02-28T00:08:38.849Z,0
2019-02-28T00:09:38.835Z,0
2019-02-28T00:10:38.820Z,0
2019-02-28T00:11:43.863Z,0
2019-02-28T00:12:38.794Z,0
2019-02-28T00:13:39.040Z,0
2019-02-28T00:14:38.775Z,0
2019-02-28T00:15:38.751Z,0
2019-02-28T00:16:41.019Z,0
2019-02-28T00:17:42.478Z,0
2019-02-28T00:18:38.715Z,0
2019-02-28T00:19:38.705Z,0
2019-02-28T00:20:41.360Z,0
2019-02-28T00:21:42.476Z,0
2019-02-28T00:22:38.658Z,0
2019-02-28T00:23:38.736Z,0
2019-02-28T00:24:38.646Z,0
2019-02-28T00:25:42.618Z,0
2019-02-28T00:26:38.611Z,0
2019-02-28T00:27:38.604Z,0
2019-02-28T00:28:38.577Z,0
2019-02-28T00:29:40.949Z,0
2019-02-28T00:30:42.838Z,0
2019-02-28T00:31:38.561Z,0
2019-02-28T00:32:38.529Z,0
2019-02-28T00:33:38.764Z,0
2019-02-28T00:34:42.195Z,0
2019-02-28T00:35:38.492Z,0
2019-02-28T00:36:38.485Z,0
2019-02-28T00:37:38.465Z,0
2019-02-28T00:38:38.445Z,0
2019-02-28T00:39:42.019Z,0
2019-02-28T00:40:41.041Z,0
2019-02-28T00:41:42.895Z,0
2019-02-28T00:42:38.382Z,0
2019-02-28T00:43:38.371Z,0
2019-02-28T00:44:38.796Z,0
2019-02-28T00:45:43.451Z,0
2019-02-28T00:46:43.812Z,0
2019-02-28T00:47:38.315Z,0
2019-02-28T00:48:38.316Z,0
2019-02-28T00:49:38.291Z,0
2019-02-28T00:50:38.273Z,0
2019-02-28T00:51:38.260Z,0
2019-02-28T00:52:42.260Z,0
2019-02-28T00:53:39.860Z,0
2019-02-28T00:54:42.963Z,0
2019-02-28T00:55:38.212Z,0
2019-02-28T00:56:38.199Z,0
2019-02-28T00:57:38.179Z,0
2019-02-28T00:58:38.164Z,0
2019-02-28T00:59:38.960Z,0
2019-02-28T01:00:42.591Z,0
2019-02-28T01:01:38.122Z,0
2019-02-28T01:02:38.112Z,0
2019-02-28T01:03:38.096Z,0
2019-02-28T01:04:38.096Z,0
2019-02-28T01:05:41.141Z,0
2019-02-28T01:06:38.058Z,0
2019-02-28T01:07:38.053Z,0
2019-02-28T01:08:38.029Z,0
2019-02-28T01:09:38.102Z,0
2019-02-28T01:10:43.687Z,0
2019-02-28T01:11:37.987Z,0
2019-02-28T01:12:37.744Z,0
2019-02-28T01:13:37.971Z,0
2019-02-28T01:14:42.588Z,0
2019-02-28T01:15:37.938Z,0
2019-02-28T01:16:38.185Z,0
2019-02-28T01:17:38.320Z,0
2019-02-28T01:18:41.717Z,0
2019-02-28T01:19:41.224Z,0
2019-02-28T01:20:37.870Z,0
2019-02-28T01:21:37.850Z,0
2019-02-28T01:22:37.832Z,0
2019-02-28T01:23:37.824Z,0
2019-02-28T01:24:41.766Z,0
2019-02-28T01:25:42.357Z,0
2019-02-28T01:26:38.094Z,0
2019-02-28T01:27:37.779Z,0
2019-02-28T01:28:37.754Z,0
2019-02-28T01:29:42.477Z,0
2019-02-28T01:30:42.693Z,0
2019-02-28T01:31:37.717Z,0
2019-02-28T01:32:37.698Z,0
2019-02-28T01:33:37.682Z,0
2019-02-28T01:34:40.062Z,0
2019-02-28T01:35:42.858Z,0
2019-02-28T01:36:37.656Z,0
2019-02-28T01:37:37.631Z,0
2019-02-28T01:38:37.611Z,0
2019-02-28T01:39:37.946Z,0
2019-02-28T01:40:42.230Z,0
2019-02-28T01:41:37.585Z,0
2019-02-28T01:42:37.571Z,0
2019-02-28T01:43:37.559Z,0
2019-02-28T01:44:42.787Z,0
2019-02-28T01:45:37.533Z,0
2019-02-28T01:46:37.276Z,0
2019-02-28T01:47:37.741Z,0
2019-02-28T01:48:37.482Z,0
2019-02-28T01:49:37.461Z,0
2019-02-28T01:50:37.558Z,0
2019-02-28T01:51:42.855Z,0
2019-02-28T01:52:37.422Z,0
2019-02-28T01:53:37.411Z,0
2019-02-28T01:54:37.397Z,0
2019-02-28T01:55:37.381Z,0
2019-02-28T01:56:41.402Z,0
2019-02-28T01:57:42.234Z,0
2019-02-28T01:58:37.337Z,0
2019-02-28T01:59:37.327Z,0
2019-02-28T02:00:37.310Z,0
2019-02-28T02:01:38.158Z,0
2019-02-28T02:02:40.487Z,0
2019-02-28T02:03:37.268Z,0
2019-02-28T02:04:37.257Z,0
2019-02-28T02:05:37.262Z,0
2019-02-28T02:06:37.229Z,0
2019-02-28T02:07:40.179Z,0
2019-02-28T02:08:40.304Z,0
2019-02-28T02:09:37.212Z,0
2019-02-28T02:10:37.184Z,0
2019-02-28T02:11:37.160Z,0
2019-02-28T02:12:39.530Z,0
2019-02-28T02:13:41.468Z,0
2019-02-28T02:14:37.123Z,0
2019-02-28T02:15:37.110Z,0
2019-02-28T02:16:37.092Z,0
2019-02-28T02:17:42.404Z,0
2019-02-28T02:18:37.316Z,0
2019-02-28T02:19:37.048Z,0
2019-02-28T02:20:37.034Z,0
2019-02-28T02:21:41.654Z,0
2019-02-28T02:22:37.016Z,0
2019-02-28T02:23:37.011Z,0
2019-02-28T02:24:36.744Z,0
2019-02-28T02:25:42.197Z,0
2019-02-28T02:26:36.953Z,0
2019-02-28T02:27:36.936Z,0
2019-02-28T02:28:36.928Z,0
2019-02-28T02:29:43.076Z,0
2019-02-28T02:30:36.932Z,0
2019-02-28T02:31:36.896Z,0
2019-02-28T02:32:44.643Z,0
2019-02-28T02:33:36.870Z,0
2019-02-28T02:34:37.052Z,0
2019-02-28T02:35:42.096Z,0
2019-02-28T02:36:36.842Z,0
2019-02-28T02:37:38.368Z,0
2019-02-28T02:38:42.584Z,0
2019-02-28T02:39:36.787Z,0
2019-02-28T02:40:36.793Z,0
2019-02-28T02:41:40.666Z,0
2019-02-28T02:42:36.738Z,0
2019-02-28T02:43:36.744Z,0
2019-02-28T02:44:39.002Z,0
2019-02-28T02:45:44.419Z,0
2019-02-28T02:46:36.696Z,0
2019-02-28T02:47:39.626Z,0
2019-02-28T02:48:38.444Z,0
2019-02-28T02:49:36.890Z,0
2019-02-28T02:50:41.796Z,0
2019-02-28T02:51:36.614Z,0
2019-02-28T02:52:37.640Z,0
2019-02-28T02:53:43.980Z,0
2019-02-28T02:54:36.603Z,0
2019-02-28T02:55:36.592Z,0
2019-02-28T02:56:43.177Z,0
2019-02-28T02:57:36.542Z,0
2019-02-28T02:58:36.539Z,0
2019-02-28T02:59:44.683Z,0
2019-02-28T03:00:36.566Z,0
2019-02-28T03:01:36.479Z,0
2019-02-28T03:02:40.383Z,0
2019-02-28T03:03:42.610Z,0
2019-02-28T03:04:36.462Z,0
2019-02-28T03:05:42.482Z,0
2019-02-28T03:06:36.435Z,0
2019-02-28T03:07:36.404Z,0
2019-02-28T03:08:43.252Z,0
2019-02-28T03:09:36.383Z,0
2019-02-28T03:10:36.389Z,0
2019-02-28T03:11:36.356Z,0
2019-02-28T03:12:38.430Z,0
2019-02-28T03:13:44.810Z,0
2019-02-28T03:14:36.305Z,0
2019-02-28T03:15:36.418Z,0
2019-02-28T03:16:40.273Z,0
2019-02-28T03:17:36.277Z,0
2019-02-28T03:18:36.251Z,0
2019-02-28T03:19:40.454Z,0
2019-02-28T03:20:41.094Z,0
2019-02-28T03:21:36.251Z,0
2019-02-28T03:22:37.523Z,0
2019-02-28T03:23:43.036Z,0
2019-02-28T03:24:36.192Z,0
2019-02-28T03:25:36.237Z,0
2019-02-28T03:26:41.322Z,0
2019-02-28T03:27:36.148Z,0
2019-02-28T03:28:39.908Z,0
2019-02-28T03:29:36.103Z,0
2019-02-28T03:30:40.334Z,0
2019-02-28T03:31:36.126Z,0
2019-02-28T03:32:47.783Z,0
2019-02-28T03:33:36.321Z,0
2019-02-28T03:34:36.106Z,0
2019-02-28T03:35:49.079Z,0
2019-02-28T03:36:35.995Z,0
2019-02-28T03:37:40.186Z,0
2019-02-28T03:38:35.974Z,0
2019-02-28T03:39:35.967Z,0
2019-02-28T03:40:42.453Z,0
2019-02-28T03:41:35.963Z,0
2019-02-28T03:42:37.158Z,0
2019-02-28T03:43:42.417Z,0
2019-02-28T03:44:35.910Z,0
2019-02-28T03:45:41.183Z,0
2019-02-28T03:46:35.887Z,0
2019-02-28T03:47:35.869Z,0
2019-02-28T03:48:41.989Z,0
2019-02-28T03:49:35.859Z,0
2019-02-28T03:50:35.855Z,0
2019-02-28T03:51:36.783Z,0
2019-02-28T03:52:41.627Z,0
2019-02-28T03:53:35.521Z,0
2019-02-28T03:54:37.071Z,0
2019-02-28T03:55:42.672Z,0
2019-02-28T03:56:35.728Z,0
2019-02-28T03:57:36.762Z,0
2019-02-28T03:58:41.212Z,0
2019-02-28T03:59:35.706Z,0
2019-02-28T04:00:39.824Z,0
2019-02-28T04:01:35.667Z,0
2019-02-28T04:02:35.475Z,0
2019-02-28T04:03:40.676Z,0
2019-02-28T04:04:35.638Z,0
2019-02-28T04:05:35.734Z,0
2019-02-28T04:06:41.975Z,0
2019-02-28T04:07:37.138Z,0
2019-02-28T04:08:37.599Z,0
2019-02-28T04:09:35.561Z,0
2019-02-28T04:10:35.534Z,0
2019-02-28T04:11:39.043Z,0
2019-02-28T04:12:35.509Z,0
2019-02-28T04:13:35.493Z,0
2019-02-28T04:14:40.015Z,0
2019-02-28T04:15:35.471Z,0
2019-02-28T04:16:35.453Z,0
2019-02-28T04:17:38.587Z,0
2019-02-28T04:18:35.505Z,0
2019-02-28T04:19:35.417Z,0
2019-02-28T04:20:43.297Z,0
2019-02-28T04:21:35.382Z,0
2019-02-28T04:22:35.622Z,0
2019-02-28T04:23:42.957Z,0
2019-02-28T04:24:35.353Z,0
2019-02-28T04:25:35.366Z,0
2019-02-28T04:26:37.109Z,0
2019-02-28T04:27:35.452Z,0
2019-02-28T04:28:35.287Z,0
2019-02-28T04:29:38.397Z,0
2019-02-28T04:30:35.267Z,20
2019-02-28T04:31:35.040Z,32
2019-02-28T04:32:35.227Z,40
2019-02-28T04:33:42.463Z,36
2019-02-28T04:34:35.220Z,40
2019-02-28T04:35:35.195Z,40
2019-02-28T04:36:40.326Z,40
2019-02-28T04:37:35.174Z,40
2019-02-28T04:38:35.148Z,40
2019-02-28T04:39:35.126Z,40
2019-02-28T04:40:35.113Z,0
2019-02-28T04:41:39.763Z,0
2019-02-28T04:42:36.595Z,0
2019-02-28T04:43:35.070Z,0
2019-02-28T04:44:35.061Z,0
2019-02-28T04:45:35.043Z,0
2019-02-28T04:46:38.698Z,0
2019-02-28T04:47:37.183Z,0
2019-02-28T04:48:35.002Z,0
2019-02-28T04:49:34.989Z,0
2019-02-28T04:50:38.430Z,0
2019-02-28T04:51:36.987Z,0
2019-02-28T04:52:34.949Z,0
2019-02-28T04:53:35.181Z,0
2019-02-28T04:54:35.815Z,0
2019-02-28T04:55:39.095Z,0
2019-02-28T04:56:34.895Z,0
2019-02-28T04:57:34.880Z,0
2019-02-28T04:58:34.864Z,0
2019-02-28T04:59:38.965Z,0
2019-02-28T05:00:37.764Z,0
2019-02-28T05:01:34.819Z,0
2019-02-28T05:02:34.818Z,0
2019-02-28T05:03:36.171Z,0
2019-02-28T05:04:38.090Z,0
2019-02-28T05:05:34.765Z,0
2019-02-28T05:06:34.750Z,0
2019-02-28T05:07:37.397Z,0
2019-02-28T05:08:38.553Z,0
2019-02-28T05:09:34.709Z,0
2019-02-28T05:10:34.695Z,0
2019-02-28T05:11:38.452Z,0
2019-02-28T05:12:36.157Z,0
2019-02-28T05:13:34.654Z,0
2019-02-28T05:14:34.637Z,0
2019-02-28T05:15:41.071Z,0
2019-02-28T05:16:34.620Z,0
2019-02-28T05:17:34.627Z,0
2019-02-28T05:18:35.297Z,20
2019-02-28T05:19:40.284Z,36
2019-02-28T05:20:35.288Z,40
2019-02-28T05:21:34.561Z,40
2019-02-28T05:22:35.641Z,44
2019-02-28T05:23:38.396Z,40
2019-02-28T05:24:34.803Z,44
2019-02-28T05:25:34.500Z,44
2019-02-28T05:26:34.474Z,4
2019-02-28T05:27:39.840Z,8
2019-02-28T05:28:40.135Z,8
2019-02-28T05:29:34.431Z,8
2019-02-28T05:30:34.421Z,12
2019-02-28T05:31:35.134Z,16
2019-02-28T05:32:40.011Z,16
2019-02-28T05:33:34.375Z,24
2019-02-28T05:34:34.381Z,28
2019-02-28T05:35:34.347Z,32
2019-02-28T05:36:39.678Z,40
2019-02-28T05:37:34.315Z,48
2019-02-28T05:38:34.365Z,52
2019-02-28T05:39:38.029Z,60
2019-02-28T05:40:34.277Z,72
2019-02-28T05:41:36.124Z,80
2019-02-28T05:42:34.262Z,96
2019-02-28T05:43:38.935Z,112
2019-02-28T05:44:34.218Z,128
2019-02-28T05:45:34.237Z,144
2019-02-28T05:46:34.190Z,164
2019-02-28T05:47:49.917Z,192
2019-02-28T05:48:35.199Z,212
2019-02-28T05:49:34.144Z,232
2019-02-28T05:50:34.144Z,260
2019-02-28T05:51:34.122Z,288
2019-02-28T05:52:38.158Z,320
2019-02-28T05:53:34.090Z,352
2019-02-28T05:54:34.077Z,384
2019-02-28T05:55:34.992Z,420
2019-02-28T05:56:37.669Z,460
2019-02-28T05:57:34.033Z,492
2019-02-28T05:58:34.027Z,536
2019-02-28T05:59:34.636Z,576
2019-02-28T06:00:38.981Z,628
2019-02-28T06:01:33.980Z,668
2019-02-28T06:02:33.960Z,716
2019-02-28T06:03:36.673Z,764
2019-02-28T06:04:39.186Z,820
2019-02-28T06:05:33.920Z,868
2019-02-28T06:06:33.941Z,924
2019-02-28T06:07:36.540Z,980
2019-02-28T06:08:35.465Z,1032
2019-02-28T06:09:33.865Z,1092
2019-02-28T06:10:33.852Z,1144
2019-02-28T06:11:39.484Z,1212
2019-02-28T06:12:33.822Z,1268
2019-02-28T06:13:33.805Z,1336
2019-02-28T06:14:34.855Z,1404
2019-02-28T06:15:39.624Z,1476
2019-02-28T06:16:33.768Z,1540
2019-02-28T06:17:33.768Z,1612
2019-02-28T06:18:40.457Z,1672
2019-02-28T06:19:33.738Z,1724
2019-02-28T06:20:33.709Z,1784
2019-02-28T06:21:33.691Z,1852
2019-02-28T06:22:38.662Z,1924
2019-02-28T06:23:33.666Z,1996
2019-02-28T06:24:33.712Z,2100
2019-02-28T06:25:33.661Z,2216
2019-02-28T06:26:36.701Z,2340
2019-02-28T06:27:48.887Z,2492
2019-02-28T06:28:37.796Z,2660
2019-02-28T06:29:36.683Z,2844
2019-02-28T06:30:34.967Z,3016
2019-02-28T06:31:34.457Z,3120
2019-02-28T06:32:34.561Z,3244
2019-02-28T06:33:37.967Z,3400
2019-02-28T06:34:35.763Z,3540
2019-02-28T06:35:33.502Z,3624
2019-02-28T06:36:36.904Z,3724
2019-02-28T06:37:35.349Z,3844
2019-02-28T06:38:33.461Z,3996
2019-02-28T06:39:34.718Z,4088
2019-02-28T06:40:37.568Z,4116
2019-02-28T06:41:33.428Z,4252
2019-02-28T06:42:33.423Z,4380
2019-02-28T06:43:33.396Z,4492
2019-02-28T06:44:34.741Z,4568
2019-02-28T06:45:36.370Z,4700
2019-02-28T06:46:33.368Z,4844
2019-02-28T06:47:33.108Z,4880
2019-02-28T06:48:33.846Z,4960
2019-02-28T06:49:33.342Z,5068
2019-02-28T06:50:33.351Z,5200
2019-02-28T06:51:33.310Z,5460
2019-02-28T06:52:33.310Z,5616
2019-02-28T06:53:38.591Z,5756
2019-02-28T06:54:33.279Z,5816
2019-02-28T06:55:33.261Z,5912
2019-02-28T06:56:33.261Z,6072
2019-02-28T06:57:35.491Z,6268
2019-02-28T06:58:37.787Z,6384
2019-02-28T06:59:33.222Z,6552
2019-02-28T07:00:33.214Z,6740
2019-02-28T07:01:34.377Z,7148
2019-02-28T07:02:38.245Z,7532
2019-02-28T07:03:35.090Z,7664
2019-02-28T07:04:49.430Z,7988
2019-02-28T07:05:33.509Z,8112
2019-02-28T07:06:38.210Z,8340
2019-02-28T07:07:33.146Z,8408
2019-02-28T07:08:35.991Z,8796
2019-02-28T07:09:38.551Z,9128
2019-02-28T07:10:33.132Z,9108
2019-02-28T07:11:33.118Z,9460
2019-02-28T07:12:37.903Z,9768
2019-02-28T07:13:33.121Z,9896
2019-02-28T07:14:32.883Z,9904
2019-02-28T07:15:32.875Z,10264
2019-02-28T07:16:40.375Z,10360
2019-02-28T07:17:33.071Z,10532
2019-02-28T07:18:33.058Z,10632
2019-02-28T07:19:34.125Z,10896
2019-02-28T07:20:35.007Z,11052
2019-02-28T07:21:34.515Z,11020
2019-02-28T07:22:33.040Z,10932
2019-02-28T07:23:36.650Z,10224
2019-02-28T07:24:37.187Z,9632
2019-02-28T07:25:33.149Z,9780
2019-02-28T07:26:33.006Z,10076
2019-02-28T07:27:36.017Z,10112
2019-02-28T07:28:38.953Z,10512
2019-02-28T07:29:34.498Z,10852
2019-02-28T07:30:32.976Z,10972
2019-02-28T07:31:32.969Z,11156
2019-02-28T07:32:38.743Z,11792
2019-02-28T07:33:32.958Z,12192
2019-02-28T07:34:32.967Z,12204
2019-02-28T07:35:39.296Z,11928
2019-02-28T07:36:32.965Z,12416
2019-02-28T07:37:32.933Z,12992
2019-02-28T07:38:36.793Z,12892
2019-02-28T07:39:32.955Z,12620
2019-02-28T07:40:33.312Z,12708
2019-02-28T07:41:34.579Z,12900
2019-02-28T07:42:33.629Z,12956
2019-02-28T07:43:32.916Z,13128
2019-02-28T07:44:32.897Z,13000
2019-02-28T07:45:37.435Z,13012
2019-02-28T07:46:32.891Z,13084
2019-02-28T07:47:32.873Z,13072
2019-02-28T07:48:36.953Z,12980
2019-02-28T07:49:38.424Z,13384
2019-02-28T07:50:32.859Z,13288
2019-02-28T07:51:33.550Z,13096
2019-02-28T07:52:39.566Z,13444
2019-02-28T07:53:32.945Z,13892
2019-02-28T07:54:33.831Z,14148
2019-02-28T07:55:35.789Z,14144
2019-02-28T07:56:32.822Z,14560
2019-02-28T07:57:32.865Z,14656
2019-02-28T07:58:38.325Z,12844
2019-02-28T07:59:32.836Z,9280
2019-02-28T08:00:33.052Z,6888
2019-02-28T08:01:35.566Z,6704
2019-02-28T08:02:35.610Z,6648
2019-02-28T08:03:32.789Z,6700
2019-02-28T08:04:32.792Z,6752
2019-02-28T08:05:37.265Z,6768
2019-02-28T08:06:32.776Z,6820
2019-02-28T08:07:32.761Z,6868
2019-02-28T08:08:34.041Z,6800
2019-02-28T08:09:32.768Z,6816
2019-02-28T08:10:32.739Z,6868
2019-02-28T08:11:32.751Z,6840
2019-02-28T08:12:36.050Z,6872
2019-02-28T08:13:34.531Z,6844
2019-02-28T08:14:32.713Z,6964
2019-02-28T08:15:32.730Z,7044
2019-02-28T08:16:36.846Z,7040
2019-02-28T08:17:32.689Z,7152
2019-02-28T08:18:34.070Z,7264
2019-02-28T08:19:34.976Z,7304
2019-02-28T08:20:38.317Z,7480
2019-02-28T08:21:32.663Z,7564
2019-02-28T08:22:33.740Z,7592
2019-02-28T08:23:37.628Z,7648
2019-02-28T08:24:35.778Z,7788
2019-02-28T08:25:32.614Z,7844
2019-02-28T08:26:32.612Z,7904
2019-02-28T08:27:33.352Z,7976
2019-02-28T08:28:38.315Z,8044
2019-02-28T08:29:32.592Z,8036
2019-02-28T08:30:32.588Z,8188
2019-02-28T08:31:39.079Z,8340
2019-02-28T08:32:33.869Z,8348
2019-02-28T08:33:32.560Z,8412
2019-02-28T08:34:32.554Z,8512
2019-02-28T08:35:39.029Z,8520
2019-02-28T08:36:32.556Z,8428
2019-02-28T08:37:32.515Z,8188
2019-02-28T08:38:36.758Z,8404
2019-02-28T08:39:32.253Z,8280
2019-02-28T08:40:33.950Z,8108
2019-02-28T08:41:33.437Z,8292
2019-02-28T08:42:32.476Z,8284
2019-02-28T08:43:34.521Z,8304
2019-02-28T08:44:32.457Z,8328
2019-02-28T08:45:37.413Z,8376
2019-02-28T08:46:32.437Z,8228
2019-02-28T08:47:32.430Z,8260
2019-02-28T08:48:39.716Z,8304
2019-02-28T08:49:32.413Z,8300
2019-02-28T08:50:32.412Z,8248
2019-02-28T08:51:37.773Z,8152
2019-02-28T08:52:32.387Z,8200
2019-02-28T08:53:32.382Z,8200
2019-02-28T08:54:34.553Z,8128
2019-02-28T08:55:38.249Z,8104
2019-02-28T08:56:34.553Z,8016
2019-02-28T08:57:32.828Z,8000
2019-02-28T08:58:32.329Z,8012
2019-02-28T08:59:32.322Z,7976
2019-02-28T09:00:40.157Z,7676
2019-02-28T09:01:32.308Z,7552
2019-02-28T09:02:32.799Z,7784
2019-02-28T09:03:35.061Z,7228
2019-02-28T09:04:40.681Z,7212
2019-02-28T09:05:34.887Z,7416
2019-02-28T09:06:32.384Z,7472
2019-02-28T09:07:32.269Z,7644
2019-02-28T09:08:33.026Z,7768
2019-02-28T09:09:36.547Z,7804
2019-02-28T09:10:32.227Z,7764
2019-02-28T09:11:32.215Z,7852
2019-02-28T09:12:37.651Z,7756
2019-02-28T09:13:32.320Z,7796
2019-02-28T09:14:32.189Z,7900
2019-02-28T09:15:37.321Z,7756
2019-02-28T09:16:32.179Z,7528
2019-02-28T09:17:32.179Z,7552
2019-02-28T09:18:32.154Z,7288
2019-02-28T09:19:38.061Z,7544
2019-02-28T09:20:32.148Z,7392
2019-02-28T09:21:32.129Z,7144
2019-02-28T09:22:35.112Z,7112
2019-02-28T09:23:34.369Z,7656
2019-02-28T09:24:33.132Z,7304
2019-02-28T09:25:34.105Z,7608
2019-02-28T09:26:35.721Z,7828
2019-02-28T09:27:32.082Z,8088
2019-02-28T09:28:32.073Z,8096
2019-02-28T09:29:32.062Z,7920
2019-02-28T09:30:36.241Z,7920
2019-02-28T09:31:32.042Z,7884
2019-02-28T09:32:32.037Z,7604
2019-02-28T09:33:32.027Z,7612
2019-02-28T09:34:35.566Z,7296
2019-02-28T09:35:32.023Z,7320
2019-02-28T09:36:32.003Z,7948
2019-02-28T09:37:36.755Z,8048
2019-02-28T09:38:31.985Z,8280
2019-02-28T09:39:31.986Z,8272
2019-02-28T09:40:35.100Z,8044
2019-02-28T09:41:31.965Z,7988
2019-02-28T09:42:32.003Z,8076
2019-02-28T09:43:32.066Z,8228
2019-02-28T09:44:33.983Z,8072
2019-02-28T09:45:31.686Z,8104
2019-02-28T09:46:31.923Z,7988
2019-02-28T09:47:34.394Z,8344
2019-02-28T09:48:33.905Z,8284
2019-02-28T09:49:31.910Z,8320
2019-02-28T09:50:33.133Z,8336
2019-02-28T09:51:36.540Z,8452
2019-02-28T09:52:31.872Z,8544
2019-02-28T09:53:31.887Z,8508
2019-02-28T09:54:32.627Z,8664
2019-02-28T09:55:36.725Z,8496
2019-02-28T09:56:31.842Z,8348
2019-02-28T09:57:32.656Z,8524
2019-02-28T09:58:35.976Z,8476
2019-02-28T09:59:37.263Z,8596
2019-02-28T10:00:32.496Z,8456
2019-02-28T10:01:32.305Z,8080
2019-02-28T10:02:31.805Z,7984
2019-02-28T10:03:31.789Z,8052
2019-02-28T10:04:37.105Z,8204
2019-02-28T10:05:31.775Z,8436
2019-02-28T10:06:33.217Z,8588
2019-02-28T10:07:33.594Z,8604
2019-02-28T10:08:33.444Z,8524
2019-02-28T10:09:31.741Z,8476
2019-02-28T10:10:31.753Z,8276
2019-02-28T10:11:36.266Z,7932
2019-02-28T10:12:31.722Z,8056
2019-02-28T10:13:33.425Z,7848
2019-02-28T10:14:37.043Z,7864
2019-02-28T10:15:31.704Z,7952
2019-02-28T10:16:31.685Z,7896
2019-02-28T10:17:35.828Z,8180
2019-02-28T10:18:31.682Z,7772
2019-02-28T10:19:31.671Z,7724
2019-02-28T10:20:35.253Z,7816
2019-02-28T10:21:33.255Z,7896
2019-02-28T10:22:31.640Z,8248
2019-02-28T10:23:31.661Z,8628
2019-02-28T10:24:33.674Z,8480
2019-02-28T10:25:31.619Z,8788
2019-02-28T10:26:31.610Z,8936
2019-02-28T10:27:34.579Z,8912
2019-02-28T10:28:31.596Z,8936
2019-02-28T10:29:31.589Z,9036
2019-02-28T10:30:39.326Z,9016
2019-02-28T10:31:43.396Z,9008
2019-02-28T10:32:31.586Z,8844
2019-02-28T10:33:31.560Z,9168
2019-02-28T10:34:35.399Z,8992
2019-02-28T10:35:33.391Z,8500
2019-02-28T10:36:31.543Z,8316
2019-02-28T10:37:31.535Z,8296
2019-02-28T10:38:37.476Z,8520
2019-02-28T10:39:31.525Z,8504
2019-02-28T10:40:31.512Z,8512
2019-02-28T10:41:36.350Z,8248
2019-02-28T10:42:31.495Z,7900
2019-02-28T10:43:31.496Z,7564
2019-02-28T10:44:37.606Z,7288
2019-02-28T10:45:31.478Z,7060
2019-02-28T10:46:31.468Z,6932
2019-02-28T10:47:35.331Z,6780
2019-02-28T10:48:31.457Z,6600
2019-02-28T10:49:32.057Z,6596
2019-02-28T10:50:36.935Z,6540
2019-02-28T10:51:31.440Z,6508
2019-02-28T10:52:35.454Z,6472
2019-02-28T10:53:32.067Z,6376
2019-02-28T10:54:31.413Z,6256
2019-02-28T10:55:31.402Z,6112
2019-02-28T10:56:36.546Z,6152
2019-02-28T10:57:31.395Z,6336
2019-02-28T10:58:31.412Z,6516
2019-02-28T10:59:31.994Z,7036
2019-02-28T11:00:36.905Z,6608
2019-02-28T11:01:31.359Z,6576
2019-02-28T11:02:31.359Z,6520
2019-02-28T11:03:36.704Z,6564
2019-02-28T11:04:32.621Z,6376
2019-02-28T11:05:32.319Z,6424
2019-02-28T11:06:35.006Z,6796
2019-02-28T11:07:34.179Z,6876
2019-02-28T11:08:31.312Z,6924
2019-02-28T11:09:32.681Z,7032
2019-02-28T11:10:35.398Z,7048
2019-02-28T11:11:31.289Z,7012
2019-02-28T11:12:31.298Z,6992
2019-02-28T11:13:36.340Z,6908
2019-02-28T11:14:31.275Z,6828
2019-02-28T11:15:31.272Z,6844
2019-02-28T11:16:31.662Z,6720
2019-02-28T11:17:35.419Z,6768
2019-02-28T11:18:31.239Z,6972
2019-02-28T11:19:31.236Z,7024
2019-02-28T11:20:35.662Z,6980
2019-02-28T11:21:35.057Z,6860
2019-02-28T11:22:31.214Z,6628
2019-02-28T11:23:31.205Z,6340
2019-02-28T11:24:34.146Z,6128
2019-02-28T11:25:34.437Z,6016
2019-02-28T11:26:31.188Z,5892
2019-02-28T11:27:31.211Z,5856
2019-02-28T11:28:35.164Z,5720
2019-02-28T11:29:31.156Z,5692
2019-02-28T11:30:31.147Z,5756
2019-02-28T11:31:32.906Z,5696
2019-02-28T11:32:34.417Z,5584
2019-02-28T11:33:30.884Z,5472
2019-02-28T11:34:31.123Z,5496
2019-02-28T11:35:31.128Z,5528
2019-02-28T11:36:36.184Z,5484
2019-02-28T11:37:31.100Z,5692
2019-02-28T11:38:31.096Z,5676
2019-02-28T11:39:36.138Z,5808
2019-02-28T11:40:31.077Z,5904
2019-02-28T11:41:31.069Z,5916
2019-02-28T11:42:36.016Z,5908
2019-02-28T11:43:37.198Z,6060
2019-02-28T11:44:31.051Z,6060
2019-02-28T11:45:32.682Z,6352
2019-02-28T11:46:35.509Z,6312
2019-02-28T11:47:31.028Z,6324
2019-02-28T11:48:31.041Z,6556
2019-02-28T11:49:35.200Z,6540
2019-02-28T11:50:31.004Z,6576
2019-02-28T11:51:32.722Z,6904
2019-02-28T11:52:32.157Z,6964
2019-02-28T11:53:30.979Z,6960
2019-02-28T11:54:30.977Z,6988
2019-02-28T11:55:31.963Z,7136
2019-02-28T11:56:35.707Z,7156
2019-02-28T11:57:30.708Z,7328
2019-02-28T11:58:32.885Z,7536
2019-02-28T11:59:32.387Z,7704
2019-02-28T12:00:32.434Z,7864
2019-02-28T12:01:30.937Z,7860
2019-02-28T12:02:31.742Z,7772
2019-02-28T12:03:31.748Z,7824
2019-02-28T12:04:30.906Z,7660
2019-02-28T12:05:30.895Z,7576
2019-02-28T12:06:33.303Z,7312
2019-02-28T12:07:34.451Z,7320
2019-02-28T12:08:30.876Z,7228
2019-02-28T12:09:30.866Z,7164
2019-02-28T12:10:34.154Z,7216
2019-02-28T12:11:33.443Z,7200
2019-02-28T12:12:30.844Z,7004
2019-02-28T12:13:30.838Z,6928
2019-02-28T12:14:35.889Z,6856
2019-02-28T12:15:30.829Z,6740
2019-02-28T12:16:30.815Z,6704
2019-02-28T12:17:35.259Z,6368
2019-02-28T12:18:30.981Z,6232
2019-02-28T12:19:30.877Z,6240
2019-02-28T12:20:33.658Z,6252
2019-02-28T12:21:30.780Z,6220
2019-02-28T12:22:30.773Z,6240
2019-02-28T12:23:31.431Z,6376
2019-02-28T12:24:32.300Z,6420
2019-02-28T12:25:30.752Z,6392
2019-02-28T12:26:30.747Z,6272
2019-02-28T12:27:32.862Z,6520
2019-02-28T12:28:30.731Z,6380
2019-02-28T12:29:30.727Z,6580
2019-02-28T12:30:32.354Z,6588
2019-02-28T12:31:32.027Z,6724
2019-02-28T12:32:30.704Z,6756
2019-02-28T12:33:30.708Z,6872
2019-02-28T12:34:34.410Z,6900
2019-02-28T12:35:35.950Z,6976
2019-02-28T12:36:49.336Z,6924
2019-02-28T12:37:30.670Z,6960
2019-02-28T12:38:33.912Z,6940
2019-02-28T12:39:33.254Z,7148
2019-02-28T12:40:30.647Z,7224
2019-02-28T12:41:32.351Z,7232
2019-02-28T12:42:31.601Z,7228
2019-02-28T12:43:30.634Z,7300
2019-02-28T12:44:30.618Z,7308
2019-02-28T12:45:32.114Z,7104
2019-02-28T12:46:34.316Z,7032
2019-02-28T12:47:31.879Z,7136
2019-02-28T12:48:31.951Z,7252
2019-02-28T12:49:33.232Z,7448
2019-02-28T12:50:34.356Z,7540
2019-02-28T12:51:30.575Z,7552
2019-02-28T12:52:30.601Z,7412
2019-02-28T12:53:32.663Z,7244
2019-02-28T12:54:33.295Z,7284
2019-02-28T12:55:30.546Z,7224
2019-02-28T12:56:30.538Z,7136
2019-02-28T12:57:30.531Z,7152
2019-02-28T12:58:39.253Z,7076
2019-02-28T12:59:30.277Z,7024
2019-02-28T13:00:31.233Z,6992
2019-02-28T13:01:33.061Z,6936
2019-02-28T13:02:30.502Z,6848
2019-02-28T13:03:30.494Z,6752
2019-02-28T13:04:32.480Z,6724
2019-02-28T13:05:30.476Z,6676
2019-02-28T13:06:31.768Z,6776
2019-02-28T13:07:35.924Z,6980
2019-02-28T13:08:47.085Z,7148
2019-02-28T13:09:32.658Z,7296
2019-02-28T13:10:35.905Z,7492
2019-02-28T13:11:30.436Z,7624
2019-02-28T13:12:30.431Z,7792
2019-02-28T13:13:34.769Z,7916
2019-02-28T13:14:30.450Z,8052
2019-02-28T13:15:30.490Z,8188
2019-02-28T13:16:30.427Z,8268
2019-02-28T13:17:34.141Z,8420
2019-02-28T13:18:30.397Z,8472
2019-02-28T13:19:30.415Z,8608
2019-02-28T13:20:38.843Z,8748
2019-02-28T13:21:31.203Z,8828
2019-02-28T13:22:31.244Z,8892
2019-02-28T13:23:32.751Z,8904
2019-02-28T13:24:30.372Z,8924
2019-02-28T13:25:31.904Z,8836
2019-02-28T13:26:33.596Z,8772
2019-02-28T13:27:32.056Z,8672
2019-02-28T13:28:30.850Z,8492
2019-02-28T13:29:34.765Z,8292
2019-02-28T13:30:30.340Z,8156
2019-02-28T13:31:35.346Z,7948
2019-02-28T13:32:33.739Z,7776
2019-02-28T13:33:30.311Z,7576
2019-02-28T13:34:34.746Z,7356
2019-02-28T13:35:30.294Z,7180
2019-02-28T13:36:30.290Z,7052
2019-02-28T13:37:30.266Z,6908
2019-02-28T13:38:30.266Z,6836
2019-02-28T13:39:34.189Z,6796
2019-02-28T13:40:30.258Z,6768
2019-02-28T13:41:33.841Z,6776
2019-02-28T13:42:30.275Z,6780
2019-02-28T13:43:31.905Z,6756
2019-02-28T13:44:36.246Z,6680
2019-02-28T13:45:31.119Z,6572
2019-02-28T13:46:37.373Z,6448
2019-02-28T13:47:30.247Z,6344
2019-02-28T13:48:39.570Z,6292
2019-02-28T13:49:30.202Z,6248
2019-02-28T13:50:35.149Z,6264
2019-02-28T13:51:30.197Z,6288